SHU6156 UHMM-UHHH
Flight info
| Callsign | SHU6156 |
|---|---|
| Flight time | 2h 13m |
| Altitude | 38000 |
| Route | K0822F380 BANOT5D BANOT L160 NA N222 TOMSU TOMSU6D |
| Aircraft | A20N/M-SDE2E3FGHIRWXY/LB1 |
Departure
| Time | 2026-04-26 05:54 |
|---|---|
| Airport | Sokol Airport (UHMM) |
Arrival
| Time | 2026-04-26 08:08 |
|---|---|
| Airport | Khabarovsk Novy Airport (UHHH) |
| Time | Latitude | Longitude | Altitude | Speed | Heading |
|---|---|---|---|---|---|
| 2026-04-26 05:32 | 59.91322 | 150.73350 | 582 ft | 0 kts | 3° |
| 2026-04-26 05:40 | 59.91317 | 150.73349 | 582 ft | 1 kts | 3° |
| 2026-04-26 05:40 | 59.91309 | 150.73348 | 582 ft | 1 kts | 3° |
| 2026-04-26 05:40 | 59.91302 | 150.73348 | 582 ft | 1 kts | 3° |
| 2026-04-26 05:40 | 59.91294 | 150.73347 | 582 ft | 1 kts | 354° |
| 2026-04-26 05:41 | 59.91286 | 150.73349 | 582 ft | 1 kts | 339° |
| 2026-04-26 05:41 | 59.91279 | 150.73355 | 582 ft | 1 kts | 323° |
| 2026-04-26 05:41 | 59.91273 | 150.73365 | 582 ft | 1 kts | 309° |
| 2026-04-26 05:41 | 59.91269 | 150.73377 | 582 ft | 1 kts | 294° |
| 2026-04-26 05:42 | 59.91266 | 150.73391 | 582 ft | 1 kts | 284° |
| 2026-04-26 05:42 | 59.91264 | 150.73406 | 582 ft | 1 kts | 275° |
| 2026-04-26 05:42 | 59.91263 | 150.73421 | 582 ft | 1 kts | 273° |
| 2026-04-26 05:42 | 59.91263 | 150.73435 | 582 ft | 0 kts | 273° |
| 2026-04-26 05:46 | 59.91263 | 150.73419 | 582 ft | 4 kts | 270° |
| 2026-04-26 05:46 | 59.91245 | 150.73331 | 582 ft | 9 kts | 242° |
| 2026-04-26 05:47 | 59.91205 | 150.73231 | 582 ft | 9 kts | 229° |
| 2026-04-26 05:47 | 59.91181 | 150.73175 | 582 ft | 1 kts | 231° |
| 2026-04-26 05:47 | 59.91180 | 150.73172 | 582 ft | 0 kts | 231° |
| 2026-04-26 05:48 | 59.91177 | 150.73165 | 582 ft | 3 kts | 230° |
| 2026-04-26 05:48 | 59.91151 | 150.73101 | 583 ft | 8 kts | 232° |
| 2026-04-26 05:48 | 59.91113 | 150.73002 | 585 ft | 10 kts | 233° |
| 2026-04-26 05:48 | 59.91075 | 150.72869 | 584 ft | 13 kts | 264° |
| 2026-04-26 05:49 | 59.91080 | 150.72680 | 584 ft | 15 kts | 273° |
| 2026-04-26 05:49 | 59.91094 | 150.72172 | 581 ft | 21 kts | 273° |
| 2026-04-26 05:49 | 59.91102 | 150.71875 | 580 ft | 21 kts | 273° |
| 2026-04-26 05:50 | 59.91109 | 150.71598 | 583 ft | 20 kts | 273° |
| 2026-04-26 05:50 | 59.91117 | 150.71321 | 584 ft | 20 kts | 273° |
| 2026-04-26 05:50 | 59.91124 | 150.71042 | 585 ft | 21 kts | 273° |
| 2026-04-26 05:50 | 59.91132 | 150.70738 | 583 ft | 22 kts | 273° |
| 2026-04-26 05:51 | 59.91141 | 150.70417 | 581 ft | 22 kts | 273° |
| 2026-04-26 05:51 | 59.91149 | 150.70124 | 580 ft | 21 kts | 273° |
| 2026-04-26 05:51 | 59.91156 | 150.69854 | 583 ft | 18 kts | 273° |
| 2026-04-26 05:51 | 59.91163 | 150.69594 | 584 ft | 20 kts | 273° |
| 2026-04-26 05:52 | 59.91170 | 150.69337 | 585 ft | 16 kts | 273° |
| 2026-04-26 05:52 | 59.91183 | 150.69149 | 583 ft | 11 kts | 301° |
| 2026-04-26 05:52 | 59.91231 | 150.69039 | 583 ft | 11 kts | 274° |
| 2026-04-26 05:52 | 59.91182 | 150.68997 | 583 ft | 9 kts | 138° |
| 2026-04-26 05:53 | 59.91175 | 150.69120 | 583 ft | 9 kts | 92° |
| 2026-04-26 05:53 | 59.91175 | 150.69133 | 583 ft | 0 kts | 93° |
| 2026-04-26 05:53 | 59.91173 | 150.69186 | 584 ft | 22 kts | 93° |
| 2026-04-26 05:53 | 59.91153 | 150.69968 | 582 ft | 90 kts | 93° |
| 2026-04-26 05:54 | 59.91110 | 150.71588 | 584 ft | 141 kts | 93° |
| 2026-04-26 05:54 | 59.91046 | 150.73747 | 858 ft | 157 kts | 91° |
| 2026-04-26 05:54 | 59.90968 | 150.75895 | 1544 ft | 156 kts | 92° |
| 2026-04-26 05:54 | 59.90853 | 150.78098 | 2262 ft | 164 kts | 92° |
| 2026-04-26 05:55 | 59.90765 | 150.80467 | 2770 ft | 182 kts | 89° |
| 2026-04-26 05:55 | 59.90731 | 150.83160 | 3333 ft | 205 kts | 88° |
| 2026-04-26 05:55 | 59.90698 | 150.86127 | 4009 ft | 225 kts | 89° |
| 2026-04-26 05:55 | 59.90637 | 150.89381 | 4671 ft | 246 kts | 90° |
| 2026-04-26 05:56 | 59.90545 | 150.92867 | 5503 ft | 256 kts | 91° |
| 2026-04-26 05:56 | 59.90437 | 150.96464 | 6457 ft | 263 kts | 91° |
| 2026-04-26 05:56 | 59.90323 | 151.00129 | 7442 ft | 266 kts | 91° |
| 2026-04-26 05:56 | 59.90200 | 151.03826 | 8433 ft | 270 kts | 95° |
| 2026-04-26 05:57 | 59.89604 | 151.07405 | 9431 ft | 278 kts | 120° |
| 2026-04-26 05:57 | 59.88244 | 151.10188 | 10342 ft | 289 kts | 146° |
| 2026-04-26 05:57 | 59.86313 | 151.11728 | 10771 ft | 313 kts | 170° |
| 2026-04-26 05:57 | 59.84064 | 151.11599 | 11102 ft | 336 kts | 194° |
| 2026-04-26 05:58 | 59.81934 | 151.09616 | 11802 ft | 342 kts | 218° |
| 2026-04-26 05:58 | 59.80328 | 151.06140 | 12669 ft | 344 kts | 240° |
| 2026-04-26 05:58 | 59.79487 | 151.01729 | 13506 ft | 344 kts | 263° |
| 2026-04-26 05:58 | 59.79526 | 150.97018 | 14286 ft | 344 kts | 283° |
| 2026-04-26 05:59 | 59.80035 | 150.92359 | 15055 ft | 347 kts | 283° |
| 2026-04-26 05:59 | 59.80372 | 150.87577 | 15834 ft | 352 kts | 276° |
| 2026-04-26 05:59 | 59.80409 | 150.82671 | 16610 ft | 358 kts | 270° |
| 2026-04-26 05:59 | 59.80221 | 150.77709 | 17371 ft | 363 kts | 266° |
| 2026-04-26 06:00 | 59.79911 | 150.72699 | 18083 ft | 368 kts | 265° |
| 2026-04-26 06:00 | 59.79548 | 150.67652 | 18749 ft | 371 kts | 264° |
| 2026-04-26 06:00 | 59.79169 | 150.62557 | 19396 ft | 375 kts | 264° |
| 2026-04-26 06:00 | 59.78788 | 150.57424 | 20012 ft | 378 kts | 264° |
| 2026-04-26 06:01 | 59.78406 | 150.52229 | 20650 ft | 381 kts | 265° |
| 2026-04-26 06:01 | 59.78022 | 150.46997 | 21282 ft | 385 kts | 265° |
| 2026-04-26 06:01 | 59.77640 | 150.41787 | 21863 ft | 389 kts | 265° |
| 2026-04-26 06:01 | 59.77247 | 150.36448 | 22478 ft | 392 kts | 265° |
| 2026-04-26 06:02 | 59.76850 | 150.31069 | 23072 ft | 396 kts | 265° |
| 2026-04-26 06:02 | 59.76445 | 150.25629 | 23660 ft | 400 kts | 265° |
| 2026-04-26 06:02 | 59.76036 | 150.20157 | 24130 ft | 403 kts | 265° |
| 2026-04-26 06:02 | 59.75621 | 150.14634 | 24617 ft | 406 kts | 265° |
| 2026-04-26 06:03 | 59.75200 | 150.09068 | 25096 ft | 410 kts | 265° |
| 2026-04-26 06:03 | 59.74773 | 150.03455 | 25551 ft | 413 kts | 265° |
| 2026-04-26 06:03 | 59.74342 | 149.97815 | 25991 ft | 416 kts | 265° |
| 2026-04-26 06:03 | 59.73903 | 149.92101 | 26437 ft | 419 kts | 265° |
| 2026-04-26 06:04 | 59.73459 | 149.86361 | 26857 ft | 423 kts | 265° |
| 2026-04-26 06:04 | 59.73009 | 149.80578 | 27282 ft | 426 kts | 265° |
| 2026-04-26 06:04 | 59.72554 | 149.74761 | 27698 ft | 429 kts | 265° |
| 2026-04-26 06:04 | 59.72092 | 149.68893 | 28086 ft | 432 kts | 265° |
| 2026-04-26 06:05 | 59.71625 | 149.62985 | 28465 ft | 435 kts | 265° |
| 2026-04-26 06:05 | 59.71151 | 149.57039 | 28834 ft | 438 kts | 265° |
| 2026-04-26 06:05 | 59.70672 | 149.51058 | 29196 ft | 441 kts | 265° |
| 2026-04-26 06:05 | 59.70186 | 149.45032 | 29547 ft | 444 kts | 265° |
| 2026-04-26 06:06 | 59.69695 | 149.38976 | 29902 ft | 447 kts | 264° |
| 2026-04-26 06:06 | 59.69367 | 149.34950 | 30118 ft | 449 kts | 264° |
| 2026-04-26 06:06 | 59.68866 | 149.28830 | 30408 ft | 452 kts | 264° |
| 2026-04-26 06:06 | 59.68300 | 149.22690 | 30695 ft | 457 kts | 259° |
| 2026-04-26 06:07 | 59.66672 | 149.14844 | 31064 ft | 468 kts | 242° |
| 2026-04-26 06:07 | 59.64737 | 149.09633 | 31400 ft | 473 kts | 230° |
| 2026-04-26 06:07 | 59.63163 | 149.06617 | 31641 ft | 476 kts | 223° |
| 2026-04-26 06:07 | 59.60598 | 149.02466 | 32034 ft | 477 kts | 220° |
| 2026-04-26 06:08 | 59.57979 | 148.98439 | 32436 ft | 476 kts | 220° |
| 2026-04-26 06:08 | 59.55380 | 148.94411 | 32827 ft | 475 kts | 220° |
| 2026-04-26 06:08 | 59.52798 | 148.90332 | 33203 ft | 475 kts | 221° |
| 2026-04-26 06:08 | 59.50239 | 148.86232 | 33578 ft | 474 kts | 221° |
| 2026-04-26 06:09 | 59.47689 | 148.82121 | 33949 ft | 474 kts | 221° |
| 2026-04-26 06:09 | 59.45143 | 148.78009 | 34258 ft | 473 kts | 221° |
| 2026-04-26 06:09 | 59.42600 | 148.73908 | 34533 ft | 473 kts | 221° |
| 2026-04-26 06:09 | 59.40055 | 148.69812 | 34800 ft | 473 kts | 221° |
| 2026-04-26 06:10 | 59.37512 | 148.65727 | 35067 ft | 473 kts | 221° |
| 2026-04-26 06:10 | 59.34970 | 148.61654 | 35334 ft | 472 kts | 221° |
| 2026-04-26 06:10 | 59.32418 | 148.57574 | 35596 ft | 472 kts | 221° |
| 2026-04-26 06:10 | 59.29909 | 148.53570 | 35840 ft | 472 kts | 221° |
| 2026-04-26 06:11 | 59.27362 | 148.49512 | 36028 ft | 472 kts | 221° |
| 2026-04-26 06:11 | 59.22273 | 148.41433 | 36054 ft | 470 kts | 221° |
| 2026-04-26 06:12 | 59.17183 | 148.33383 | 36057 ft | 471 kts | 221° |
| 2026-04-26 06:12 | 59.12085 | 148.25354 | 36064 ft | 471 kts | 221° |
| 2026-04-26 06:13 | 59.06986 | 148.17353 | 36066 ft | 471 kts | 221° |
| 2026-04-26 06:13 | 59.01880 | 148.09371 | 36059 ft | 471 kts | 221° |
| 2026-04-26 06:14 | 58.96769 | 148.01416 | 36065 ft | 471 kts | 221° |
| 2026-04-26 06:14 | 58.91682 | 147.93528 | 36070 ft | 471 kts | 221° |
| 2026-04-26 06:15 | 58.86561 | 147.85618 | 36068 ft | 471 kts | 221° |
| 2026-04-26 06:15 | 58.81436 | 147.77732 | 36070 ft | 471 kts | 221° |
| 2026-04-26 06:16 | 58.76310 | 147.69875 | 36074 ft | 471 kts | 221° |
| 2026-04-26 06:16 | 58.71169 | 147.62050 | 36075 ft | 471 kts | 221° |
| 2026-04-26 06:17 | 58.66036 | 147.54250 | 36075 ft | 470 kts | 221° |
| 2026-04-26 06:17 | 58.60900 | 147.46460 | 36076 ft | 470 kts | 221° |
| 2026-04-26 06:18 | 58.55759 | 147.38698 | 36077 ft | 470 kts | 220° |
| 2026-04-26 06:18 | 58.50615 | 147.30968 | 36078 ft | 470 kts | 220° |
| 2026-04-26 06:19 | 58.45469 | 147.23267 | 36079 ft | 470 kts | 220° |
| 2026-04-26 06:19 | 58.40315 | 147.15582 | 36085 ft | 470 kts | 220° |
| 2026-04-26 06:20 | 58.35196 | 147.07979 | 36081 ft | 469 kts | 220° |
| 2026-04-26 06:20 | 58.30043 | 147.00353 | 36082 ft | 469 kts | 220° |
| 2026-04-26 06:21 | 58.24885 | 146.92750 | 36085 ft | 469 kts | 220° |
| 2026-04-26 06:21 | 58.19724 | 146.85171 | 36085 ft | 469 kts | 220° |
| 2026-04-26 06:22 | 58.14561 | 146.77618 | 36085 ft | 469 kts | 220° |
| 2026-04-26 06:22 | 58.09393 | 146.70085 | 36083 ft | 468 kts | 220° |
| 2026-04-26 06:23 | 58.04224 | 146.62579 | 36089 ft | 468 kts | 220° |
| 2026-04-26 06:23 | 57.99091 | 146.55155 | 36087 ft | 468 kts | 220° |
| 2026-04-26 06:24 | 57.93919 | 146.47700 | 36089 ft | 468 kts | 220° |
| 2026-04-26 06:24 | 57.88746 | 146.40272 | 36088 ft | 468 kts | 220° |
| 2026-04-26 06:25 | 57.83569 | 146.32867 | 36090 ft | 467 kts | 220° |
| 2026-04-26 06:25 | 57.78394 | 146.25490 | 36090 ft | 467 kts | 220° |
| 2026-04-26 06:26 | 57.73214 | 146.18133 | 36094 ft | 467 kts | 220° |
| 2026-04-26 06:26 | 57.68061 | 146.10842 | 36093 ft | 467 kts | 220° |
| 2026-04-26 06:27 | 57.62877 | 146.03535 | 36098 ft | 466 kts | 220° |
| 2026-04-26 06:27 | 57.57697 | 145.96260 | 36102 ft | 466 kts | 220° |
| 2026-04-26 06:28 | 57.52513 | 145.89004 | 36104 ft | 466 kts | 220° |
| 2026-04-26 06:28 | 57.47326 | 145.81772 | 36103 ft | 466 kts | 220° |
| 2026-04-26 06:29 | 57.42138 | 145.74565 | 36104 ft | 465 kts | 220° |
| 2026-04-26 06:29 | 57.36954 | 145.67388 | 36109 ft | 465 kts | 220° |
| 2026-04-26 06:30 | 57.31773 | 145.60242 | 36107 ft | 464 kts | 220° |
| 2026-04-26 06:30 | 57.26591 | 145.53120 | 36110 ft | 464 kts | 220° |
| 2026-04-26 06:31 | 57.21400 | 145.46013 | 36112 ft | 464 kts | 219° |
| 2026-04-26 06:31 | 57.16215 | 145.38938 | 36115 ft | 463 kts | 219° |
| 2026-04-26 06:32 | 57.11028 | 145.31886 | 36117 ft | 463 kts | 219° |
| 2026-04-26 06:32 | 57.05838 | 145.24855 | 36111 ft | 463 kts | 219° |
| 2026-04-26 06:33 | 57.00646 | 145.17846 | 36120 ft | 463 kts | 219° |
| 2026-04-26 06:33 | 56.95491 | 145.10911 | 36124 ft | 462 kts | 219° |
| 2026-04-26 06:34 | 56.90299 | 145.03951 | 36123 ft | 462 kts | 219° |
| 2026-04-26 06:34 | 56.85107 | 144.97016 | 36125 ft | 462 kts | 219° |
| 2026-04-26 06:35 | 56.79917 | 144.90108 | 36130 ft | 461 kts | 219° |
| 2026-04-26 06:35 | 56.74725 | 144.83220 | 36130 ft | 461 kts | 219° |
| 2026-04-26 06:36 | 56.69537 | 144.76363 | 36129 ft | 461 kts | 219° |
| 2026-04-26 06:36 | 56.64348 | 144.69527 | 36128 ft | 461 kts | 219° |
| 2026-04-26 06:37 | 56.59156 | 144.62712 | 36131 ft | 460 kts | 219° |
| 2026-04-26 06:37 | 56.53958 | 144.55913 | 36129 ft | 460 kts | 219° |
| 2026-04-26 06:38 | 56.48763 | 144.49141 | 36135 ft | 460 kts | 219° |
| 2026-04-26 06:38 | 56.43599 | 144.42433 | 36132 ft | 459 kts | 219° |
| 2026-04-26 06:39 | 56.38405 | 144.35706 | 36136 ft | 459 kts | 219° |
| 2026-04-26 06:39 | 56.33211 | 144.28996 | 36143 ft | 459 kts | 219° |
| 2026-04-26 06:40 | 56.27997 | 144.22371 | 36141 ft | 459 kts | 217° |
| 2026-04-26 06:40 | 56.22745 | 144.15835 | 36139 ft | 458 kts | 218° |
| 2026-04-26 06:41 | 56.17517 | 144.09253 | 36139 ft | 458 kts | 218° |
| 2026-04-26 06:41 | 56.12281 | 144.02723 | 36145 ft | 458 kts | 218° |
| 2026-04-26 06:42 | 56.07041 | 143.96228 | 36144 ft | 458 kts | 218° |
| 2026-04-26 06:42 | 56.01801 | 143.89756 | 36147 ft | 457 kts | 218° |
| 2026-04-26 06:43 | 55.96599 | 143.83351 | 36141 ft | 457 kts | 217° |
| 2026-04-26 06:43 | 55.91362 | 143.76925 | 36145 ft | 456 kts | 217° |
| 2026-04-26 06:44 | 55.86126 | 143.70520 | 36146 ft | 456 kts | 217° |
| 2026-04-26 06:44 | 55.80895 | 143.64143 | 36148 ft | 456 kts | 217° |
| 2026-04-26 06:45 | 55.75662 | 143.57786 | 36147 ft | 455 kts | 217° |
| 2026-04-26 06:45 | 55.70433 | 143.51455 | 36148 ft | 455 kts | 217° |
| 2026-04-26 06:46 | 55.65205 | 143.45144 | 36146 ft | 454 kts | 217° |
| 2026-04-26 06:46 | 55.59980 | 143.38859 | 36152 ft | 454 kts | 217° |
| 2026-04-26 06:47 | 55.54755 | 143.32594 | 36152 ft | 453 kts | 217° |
| 2026-04-26 06:47 | 55.49529 | 143.26348 | 36150 ft | 453 kts | 217° |
| 2026-04-26 06:48 | 55.44341 | 143.20169 | 36150 ft | 453 kts | 217° |
| 2026-04-26 06:48 | 55.39124 | 143.13973 | 36154 ft | 452 kts | 217° |
| 2026-04-26 06:49 | 55.33906 | 143.07797 | 36156 ft | 452 kts | 216° |
| 2026-04-26 06:49 | 55.28689 | 143.01643 | 36156 ft | 451 kts | 216° |
| 2026-04-26 06:50 | 55.23470 | 142.95505 | 36157 ft | 451 kts | 216° |
| 2026-04-26 06:50 | 55.18252 | 142.89413 | 36157 ft | 451 kts | 216° |
| 2026-04-26 06:51 | 55.13008 | 142.83395 | 36157 ft | 451 kts | 216° |
| 2026-04-26 06:51 | 55.05150 | 142.74390 | 36161 ft | 450 kts | 216° |
| 2026-04-26 06:52 | 54.99910 | 142.68405 | 36159 ft | 450 kts | 216° |
| 2026-04-26 06:52 | 54.95560 | 142.63450 | 36163 ft | 449 kts | 216° |
| 2026-04-26 06:53 | 54.90328 | 142.57508 | 36164 ft | 449 kts | 215° |
| 2026-04-26 06:53 | 54.84208 | 142.50581 | 36163 ft | 449 kts | 215° |
| 2026-04-26 06:54 | 54.79859 | 142.45675 | 36162 ft | 448 kts | 215° |
| 2026-04-26 06:54 | 54.73781 | 142.38838 | 36164 ft | 448 kts | 215° |
| 2026-04-26 06:55 | 54.68555 | 142.32980 | 36162 ft | 448 kts | 215° |
| 2026-04-26 06:55 | 54.64171 | 142.28080 | 36162 ft | 447 kts | 215° |
| 2026-04-26 06:56 | 54.58978 | 142.22292 | 36162 ft | 447 kts | 215° |
| 2026-04-26 06:56 | 54.53751 | 142.16485 | 36160 ft | 447 kts | 215° |
| 2026-04-26 06:57 | 54.48528 | 142.10699 | 36160 ft | 446 kts | 215° |
| 2026-04-26 06:57 | 54.43300 | 142.04925 | 36155 ft | 446 kts | 215° |
| 2026-04-26 06:58 | 54.38072 | 141.99170 | 36155 ft | 446 kts | 215° |
| 2026-04-26 06:58 | 54.32842 | 141.93430 | 36154 ft | 446 kts | 215° |
| 2026-04-26 06:59 | 54.27616 | 141.87712 | 36151 ft | 446 kts | 214° |
| 2026-04-26 06:59 | 54.22385 | 141.82004 | 36148 ft | 446 kts | 214° |
| 2026-04-26 07:00 | 54.17144 | 141.76305 | 36151 ft | 446 kts | 214° |
| 2026-04-26 07:00 | 54.11903 | 141.70623 | 36147 ft | 446 kts | 214° |
| 2026-04-26 07:01 | 54.06692 | 141.64990 | 36149 ft | 446 kts | 214° |
| 2026-04-26 07:01 | 54.01441 | 141.59332 | 36150 ft | 447 kts | 214° |
| 2026-04-26 07:02 | 53.96187 | 141.53687 | 36147 ft | 447 kts | 214° |
| 2026-04-26 07:02 | 53.90931 | 141.48057 | 36148 ft | 447 kts | 214° |
| 2026-04-26 07:03 | 53.85671 | 141.42439 | 36145 ft | 447 kts | 214° |
| 2026-04-26 07:03 | 53.80410 | 141.36838 | 36147 ft | 447 kts | 214° |
| 2026-04-26 07:04 | 53.75145 | 141.31249 | 36151 ft | 446 kts | 213° |
| 2026-04-26 07:04 | 53.69884 | 141.25680 | 36152 ft | 446 kts | 213° |
| 2026-04-26 07:05 | 53.64651 | 141.20153 | 36145 ft | 446 kts | 213° |
| 2026-04-26 07:05 | 53.59389 | 141.14622 | 36150 ft | 446 kts | 213° |
| 2026-04-26 07:06 | 53.54126 | 141.09103 | 36149 ft | 445 kts | 213° |
| 2026-04-26 07:06 | 53.48876 | 141.03614 | 36142 ft | 444 kts | 213° |
| 2026-04-26 07:07 | 53.43625 | 140.98139 | 36143 ft | 444 kts | 213° |
| 2026-04-26 07:07 | 53.38376 | 140.92682 | 36136 ft | 443 kts | 213° |
| 2026-04-26 07:08 | 53.33135 | 140.87251 | 36135 ft | 443 kts | 213° |
| 2026-04-26 07:08 | 53.27901 | 140.81842 | 36135 ft | 442 kts | 212° |
| 2026-04-26 07:09 | 53.22672 | 140.76452 | 36131 ft | 441 kts | 212° |
| 2026-04-26 07:09 | 53.17450 | 140.71087 | 36121 ft | 441 kts | 212° |
| 2026-04-26 07:11 | 53.05066 | 140.56160 | 36106 ft | 439 kts | 217° |
| 2026-04-26 07:11 | 53.00180 | 140.50095 | 36103 ft | 438 kts | 217° |
| 2026-04-26 07:12 | 52.95287 | 140.44047 | 36101 ft | 438 kts | 217° |
| 2026-04-26 07:12 | 52.90432 | 140.38063 | 36099 ft | 438 kts | 217° |
| 2026-04-26 07:13 | 52.85508 | 140.32013 | 36093 ft | 438 kts | 217° |
| 2026-04-26 07:13 | 52.80646 | 140.26054 | 36092 ft | 438 kts | 217° |
| 2026-04-26 07:14 | 52.75750 | 140.20071 | 36095 ft | 438 kts | 217° |
| 2026-04-26 07:14 | 52.70845 | 140.14094 | 36095 ft | 438 kts | 217° |
| 2026-04-26 07:15 | 52.65945 | 140.08141 | 36098 ft | 437 kts | 217° |
| 2026-04-26 07:15 | 52.61026 | 140.02248 | 36091 ft | 437 kts | 216° |
| 2026-04-26 07:16 | 52.55986 | 139.96631 | 36090 ft | 437 kts | 215° |
| 2026-04-26 07:16 | 52.50954 | 139.91036 | 36092 ft | 437 kts | 215° |
| 2026-04-26 07:17 | 52.45929 | 139.85423 | 36099 ft | 436 kts | 215° |
| 2026-04-26 07:17 | 52.40915 | 139.79827 | 36090 ft | 436 kts | 215° |
| 2026-04-26 07:18 | 52.35899 | 139.74247 | 36091 ft | 436 kts | 215° |
| 2026-04-26 07:18 | 52.30885 | 139.68683 | 36096 ft | 435 kts | 215° |
| 2026-04-26 07:19 | 52.25880 | 139.63147 | 36089 ft | 434 kts | 215° |
| 2026-04-26 07:19 | 52.20882 | 139.57633 | 36088 ft | 434 kts | 215° |
| 2026-04-26 07:20 | 52.15888 | 139.52139 | 36089 ft | 433 kts | 215° |
| 2026-04-26 07:20 | 52.10896 | 139.46661 | 36080 ft | 432 kts | 215° |
| 2026-04-26 07:21 | 52.05952 | 139.41251 | 36079 ft | 431 kts | 215° |
| 2026-04-26 07:21 | 52.00981 | 139.35825 | 36076 ft | 430 kts | 215° |
| 2026-04-26 07:22 | 51.96005 | 139.30410 | 36070 ft | 430 kts | 215° |
| 2026-04-26 07:22 | 51.91040 | 139.25021 | 36073 ft | 429 kts | 215° |
| 2026-04-26 07:23 | 51.86083 | 139.19654 | 36076 ft | 428 kts | 215° |
| 2026-04-26 07:23 | 51.81129 | 139.14306 | 36070 ft | 428 kts | 215° |
| 2026-04-26 07:24 | 51.76185 | 139.08982 | 36072 ft | 427 kts | 215° |
| 2026-04-26 07:24 | 51.71240 | 139.03672 | 36070 ft | 427 kts | 215° |
| 2026-04-26 07:25 | 51.66301 | 138.98382 | 36064 ft | 426 kts | 215° |
| 2026-04-26 07:25 | 51.61361 | 138.93106 | 36068 ft | 426 kts | 215° |
| 2026-04-26 07:26 | 51.56427 | 138.87850 | 36073 ft | 426 kts | 215° |
| 2026-04-26 07:26 | 51.51492 | 138.82605 | 36072 ft | 425 kts | 215° |
| 2026-04-26 07:27 | 51.46555 | 138.77374 | 36073 ft | 425 kts | 215° |
| 2026-04-26 07:27 | 51.41653 | 138.72192 | 36077 ft | 425 kts | 215° |
| 2026-04-26 07:28 | 51.36723 | 138.66995 | 36073 ft | 424 kts | 215° |
| 2026-04-26 07:28 | 51.31791 | 138.61809 | 36071 ft | 424 kts | 215° |
| 2026-04-26 07:29 | 51.26867 | 138.56646 | 36067 ft | 423 kts | 215° |
| 2026-04-26 07:29 | 51.21946 | 138.51499 | 36060 ft | 422 kts | 215° |
| 2026-04-26 07:30 | 51.17034 | 138.46375 | 36050 ft | 421 kts | 215° |
| 2026-04-26 07:30 | 51.12127 | 138.41268 | 36047 ft | 421 kts | 215° |
| 2026-04-26 07:31 | 51.07228 | 138.36184 | 36035 ft | 420 kts | 215° |
| 2026-04-26 07:31 | 51.02338 | 138.31122 | 36042 ft | 419 kts | 215° |
| 2026-04-26 07:32 | 50.97485 | 138.26110 | 36022 ft | 418 kts | 215° |
| 2026-04-26 07:32 | 50.92606 | 138.21081 | 36034 ft | 418 kts | 215° |
| 2026-04-26 07:33 | 50.87956 | 138.15591 | 36021 ft | 416 kts | 220° |
| 2026-04-26 07:33 | 50.83406 | 138.09935 | 36022 ft | 416 kts | 220° |
| 2026-04-26 07:34 | 50.78842 | 138.04302 | 36018 ft | 416 kts | 219° |
| 2026-04-26 07:34 | 50.74275 | 137.98697 | 36013 ft | 415 kts | 219° |
| 2026-04-26 07:35 | 50.69708 | 137.93108 | 36014 ft | 415 kts | 219° |
| 2026-04-26 07:35 | 50.65172 | 137.87570 | 36013 ft | 415 kts | 219° |
| 2026-04-26 07:36 | 50.60608 | 137.82013 | 36008 ft | 415 kts | 219° |
| 2026-04-26 07:36 | 50.56046 | 137.76471 | 36009 ft | 414 kts | 219° |
| 2026-04-26 07:37 | 50.51482 | 137.70942 | 36008 ft | 414 kts | 219° |
| 2026-04-26 07:37 | 50.46919 | 137.65427 | 36008 ft | 413 kts | 219° |
| 2026-04-26 07:38 | 50.42364 | 137.59935 | 36008 ft | 413 kts | 219° |
| 2026-04-26 07:38 | 50.37783 | 137.54484 | 36003 ft | 413 kts | 217° |
| 2026-04-26 07:39 | 50.33051 | 137.49386 | 35999 ft | 413 kts | 217° |
| 2026-04-26 07:39 | 50.28324 | 137.44291 | 35997 ft | 412 kts | 217° |
| 2026-04-26 07:40 | 50.23603 | 137.39213 | 35997 ft | 412 kts | 217° |
| 2026-04-26 07:40 | 50.18888 | 137.34155 | 35989 ft | 411 kts | 217° |
| 2026-04-26 07:41 | 50.14202 | 137.29142 | 35986 ft | 410 kts | 217° |
| 2026-04-26 07:41 | 50.09497 | 137.24120 | 35984 ft | 410 kts | 217° |
| 2026-04-26 07:42 | 50.04782 | 137.19144 | 35987 ft | 409 kts | 216° |
| 2026-04-26 07:42 | 50.00818 | 137.15001 | 35980 ft | 409 kts | 216° |
| 2026-04-26 07:43 | 49.96103 | 137.10075 | 35977 ft | 408 kts | 216° |
| 2026-04-26 07:43 | 49.91395 | 137.05164 | 35965 ft | 408 kts | 216° |
| 2026-04-26 07:43 | 49.89066 | 137.02738 | 35781 ft | 408 kts | 216° |
| 2026-04-26 07:44 | 49.86714 | 137.00293 | 35533 ft | 405 kts | 216° |
| 2026-04-26 07:44 | 49.83598 | 136.97058 | 35206 ft | 402 kts | 216° |
| 2026-04-26 07:44 | 49.82058 | 136.95460 | 35048 ft | 401 kts | 216° |
| 2026-04-26 07:44 | 49.79739 | 136.93056 | 34809 ft | 400 kts | 216° |
| 2026-04-26 07:45 | 49.77428 | 136.90663 | 34571 ft | 399 kts | 216° |
| 2026-04-26 07:45 | 49.75118 | 136.88274 | 34095 ft | 400 kts | 216° |
| 2026-04-26 07:45 | 49.72803 | 136.85883 | 33342 ft | 401 kts | 217° |
| 2026-04-26 07:45 | 49.70487 | 136.83495 | 32529 ft | 400 kts | 217° |
| 2026-04-26 07:46 | 49.68184 | 136.81123 | 31783 ft | 396 kts | 217° |
| 2026-04-26 07:46 | 49.65905 | 136.78780 | 31068 ft | 391 kts | 217° |
| 2026-04-26 07:46 | 49.63662 | 136.76476 | 30389 ft | 385 kts | 217° |
| 2026-04-26 07:46 | 49.61455 | 136.74211 | 29436 ft | 379 kts | 217° |
| 2026-04-26 07:47 | 49.59271 | 136.71968 | 28615 ft | 374 kts | 217° |
| 2026-04-26 07:47 | 49.57127 | 136.69769 | 28135 ft | 364 kts | 217° |
| 2026-04-26 07:47 | 49.55046 | 136.67640 | 27620 ft | 356 kts | 217° |
| 2026-04-26 07:47 | 49.52993 | 136.65539 | 27021 ft | 352 kts | 217° |
| 2026-04-26 07:48 | 49.50971 | 136.63471 | 26429 ft | 347 kts | 217° |
| 2026-04-26 07:48 | 49.48966 | 136.61424 | 25846 ft | 344 kts | 217° |
| 2026-04-26 07:48 | 49.46982 | 136.59398 | 25249 ft | 341 kts | 216° |
| 2026-04-26 07:48 | 49.45035 | 136.57336 | 24660 ft | 338 kts | 219° |
| 2026-04-26 07:49 | 49.43254 | 136.55002 | 24072 ft | 336 kts | 225° |
| 2026-04-26 07:49 | 49.41616 | 136.52454 | 23461 ft | 335 kts | 226° |
| 2026-04-26 07:49 | 49.39981 | 136.49891 | 22815 ft | 334 kts | 226° |
| 2026-04-26 07:50 | 49.36732 | 136.44835 | 21648 ft | 331 kts | 226° |
| 2026-04-26 07:50 | 49.35139 | 136.42366 | 21067 ft | 329 kts | 226° |
| 2026-04-26 07:50 | 49.33530 | 136.39876 | 20470 ft | 328 kts | 226° |
| 2026-04-26 07:50 | 49.31925 | 136.37394 | 19875 ft | 327 kts | 226° |
| 2026-04-26 07:51 | 49.30321 | 136.34915 | 19279 ft | 327 kts | 226° |
| 2026-04-26 07:51 | 49.28718 | 136.32440 | 18678 ft | 327 kts | 226° |
| 2026-04-26 07:51 | 49.27109 | 136.29960 | 18035 ft | 328 kts | 226° |
| 2026-04-26 07:51 | 49.25504 | 136.27486 | 17412 ft | 328 kts | 226° |
| 2026-04-26 07:52 | 49.23899 | 136.25013 | 16798 ft | 327 kts | 226° |
| 2026-04-26 07:52 | 49.22297 | 136.22549 | 16190 ft | 326 kts | 226° |
| 2026-04-26 07:52 | 49.20697 | 136.20090 | 15576 ft | 326 kts | 226° |
| 2026-04-26 07:52 | 49.19094 | 136.17630 | 14961 ft | 327 kts | 225° |
| 2026-04-26 07:53 | 49.17484 | 136.15162 | 14342 ft | 328 kts | 225° |
| 2026-04-26 07:53 | 49.15866 | 136.12684 | 13712 ft | 330 kts | 225° |
| 2026-04-26 07:53 | 49.14247 | 136.10207 | 13057 ft | 330 kts | 225° |
| 2026-04-26 07:53 | 49.12627 | 136.07731 | 12433 ft | 329 kts | 225° |
| 2026-04-26 07:54 | 49.11010 | 136.05262 | 11803 ft | 328 kts | 225° |
| 2026-04-26 07:54 | 49.09395 | 136.02799 | 11180 ft | 328 kts | 224° |
| 2026-04-26 07:54 | 49.07783 | 136.00340 | 10555 ft | 328 kts | 224° |
| 2026-04-26 07:54 | 49.06170 | 135.97883 | 10077 ft | 324 kts | 224° |
| 2026-04-26 07:55 | 49.04624 | 135.95530 | 9877 ft | 305 kts | 224° |
| 2026-04-26 07:55 | 49.03168 | 135.93317 | 9672 ft | 287 kts | 224° |
| 2026-04-26 07:55 | 49.01778 | 135.91206 | 9216 ft | 280 kts | 224° |
| 2026-04-26 07:55 | 49.00426 | 135.89157 | 8970 ft | 269 kts | 224° |
| 2026-04-26 07:56 | 48.99078 | 135.87117 | 8575 ft | 277 kts | 224° |
| 2026-04-26 07:56 | 48.97699 | 135.85029 | 8123 ft | 280 kts | 224° |
| 2026-04-26 07:56 | 48.96342 | 135.82917 | 7785 ft | 277 kts | 225° |
| 2026-04-26 07:56 | 48.95022 | 135.80799 | 7446 ft | 274 kts | 226° |
| 2026-04-26 07:57 | 48.93739 | 135.78730 | 7122 ft | 271 kts | 226° |
| 2026-04-26 07:57 | 48.92457 | 135.76671 | 6929 ft | 262 kts | 226° |
| 2026-04-26 07:57 | 48.91241 | 135.74726 | 6923 ft | 246 kts | 225° |
| 2026-04-26 07:57 | 48.90095 | 135.72916 | 6917 ft | 231 kts | 225° |
| 2026-04-26 07:58 | 48.88972 | 135.71159 | 6781 ft | 231 kts | 225° |
| 2026-04-26 07:58 | 48.87849 | 135.69404 | 6525 ft | 232 kts | 225° |
| 2026-04-26 07:58 | 48.86711 | 135.67626 | 6429 ft | 236 kts | 225° |
| 2026-04-26 07:58 | 48.85568 | 135.65841 | 6323 ft | 235 kts | 225° |
| 2026-04-26 07:59 | 48.84426 | 135.64057 | 6201 ft | 235 kts | 225° |
| 2026-04-26 07:59 | 48.83286 | 135.62274 | 6090 ft | 235 kts | 225° |
| 2026-04-26 07:59 | 48.82147 | 135.60495 | 5981 ft | 235 kts | 225° |
| 2026-04-26 07:59 | 48.81009 | 135.58719 | 5877 ft | 234 kts | 225° |
| 2026-04-26 08:00 | 48.79874 | 135.56948 | 5768 ft | 234 kts | 225° |
| 2026-04-26 08:00 | 48.78737 | 135.55175 | 5709 ft | 234 kts | 225° |
| 2026-04-26 08:00 | 48.77601 | 135.53406 | 5628 ft | 234 kts | 225° |
| 2026-04-26 08:00 | 48.76464 | 135.51635 | 5538 ft | 234 kts | 225° |
| 2026-04-26 08:01 | 48.75290 | 135.49939 | 5425 ft | 233 kts | 221° |
| 2026-04-26 08:01 | 48.74081 | 135.48281 | 5044 ft | 237 kts | 221° |
| 2026-04-26 08:01 | 48.72865 | 135.46608 | 4748 ft | 234 kts | 221° |
| 2026-04-26 08:01 | 48.71672 | 135.44965 | 4466 ft | 229 kts | 221° |
| 2026-04-26 08:02 | 48.70516 | 135.43373 | 4203 ft | 220 kts | 221° |
| 2026-04-26 08:02 | 48.69400 | 135.41839 | 3962 ft | 212 kts | 221° |
| 2026-04-26 08:02 | 48.68345 | 135.40388 | 3729 ft | 199 kts | 221° |
| 2026-04-26 08:02 | 48.67352 | 135.39023 | 3478 ft | 185 kts | 221° |
| 2026-04-26 08:03 | 48.66456 | 135.37791 | 3263 ft | 164 kts | 221° |
| 2026-04-26 08:03 | 48.65654 | 135.36690 | 3043 ft | 148 kts | 221° |
| 2026-04-26 08:03 | 48.64919 | 135.35681 | 2874 ft | 138 kts | 222° |
| 2026-04-26 08:03 | 48.64232 | 135.34739 | 2713 ft | 137 kts | 221° |
| 2026-04-26 08:04 | 48.63513 | 135.33752 | 2540 ft | 140 kts | 221° |
| 2026-04-26 08:04 | 48.62800 | 135.32774 | 2377 ft | 137 kts | 221° |
| 2026-04-26 08:04 | 48.62095 | 135.31807 | 2201 ft | 137 kts | 222° |
| 2026-04-26 08:04 | 48.61390 | 135.30840 | 2036 ft | 137 kts | 222° |
| 2026-04-26 08:05 | 48.60683 | 135.29872 | 1865 ft | 137 kts | 222° |
| 2026-04-26 08:05 | 48.59977 | 135.28904 | 1700 ft | 137 kts | 222° |
| 2026-04-26 08:05 | 48.59273 | 135.27940 | 1528 ft | 137 kts | 222° |
| 2026-04-26 08:05 | 48.58573 | 135.26980 | 1355 ft | 135 kts | 222° |
| 2026-04-26 08:06 | 48.57872 | 135.26021 | 1186 ft | 136 kts | 222° |
| 2026-04-26 08:06 | 48.57171 | 135.25062 | 1011 ft | 136 kts | 223° |
| 2026-04-26 08:06 | 48.56485 | 135.24123 | 839 ft | 132 kts | 223° |
| 2026-04-26 08:06 | 48.55802 | 135.23189 | 681 ft | 133 kts | 222° |
| 2026-04-26 08:07 | 48.55110 | 135.22251 | 521 ft | 134 kts | 223° |
| 2026-04-26 08:07 | 48.54417 | 135.21302 | 356 ft | 135 kts | 223° |
| 2026-04-26 08:07 | 48.53736 | 135.20369 | 243 ft | 126 kts | 223° |
| 2026-04-26 08:07 | 48.53231 | 135.19677 | 236 ft | 57 kts | 222° |
| 2026-04-26 08:08 | 48.53054 | 135.19432 | 238 ft | 24 kts | 227° |
| 2026-04-26 08:08 | 48.53005 | 135.19229 | 238 ft | 12 kts | 258° |
| 2026-04-26 08:08 | 48.52983 | 135.19088 | 237 ft | 16 kts | 256° |
| 2026-04-26 08:08 | 48.52956 | 135.18915 | 233 ft | 17 kts | 257° |
| 2026-04-26 08:09 | 48.52943 | 135.18757 | 233 ft | 14 kts | 282° |
| 2026-04-26 08:09 | 48.52994 | 135.18647 | 235 ft | 12 kts | 313° |
| 2026-04-26 08:09 | 48.53051 | 135.18545 | 237 ft | 12 kts | 297° |
| 2026-04-26 08:09 | 48.53028 | 135.18433 | 234 ft | 13 kts | 224° |
| 2026-04-26 08:10 | 48.52952 | 135.18330 | 237 ft | 16 kts | 223° |
| 2026-04-26 08:10 | 48.52865 | 135.18211 | 237 ft | 17 kts | 222° |
| 2026-04-26 08:10 | 48.52827 | 135.18159 | 237 ft | 13 kts | 222° |
| 2026-04-26 08:10 | 48.52779 | 135.18066 | 234 ft | 10 kts | 271° |
| 2026-04-26 08:11 | 48.52828 | 135.17974 | 236 ft | 13 kts | 312° |
| 2026-04-26 08:11 | 48.52886 | 135.17877 | 236 ft | 12 kts | 312° |
| 2026-04-26 08:11 | 48.52933 | 135.17793 | 234 ft | 10 kts | 293° |
| 2026-04-26 08:11 | 48.52902 | 135.17701 | 234 ft | 11 kts | 223° |
| 2026-04-26 08:12 | 48.52845 | 135.17623 | 237 ft | 12 kts | 222° |
| 2026-04-26 08:12 | 48.52795 | 135.17556 | 237 ft | 8 kts | 221° |
| 2026-04-26 08:12 | 48.52742 | 135.17524 | 238 ft | 9 kts | 165° |
| 2026-04-26 08:12 | 48.52698 | 135.17572 | 236 ft | 8 kts | 152° |
| 2026-04-26 08:13 | 48.52640 | 135.17541 | 234 ft | 10 kts | 220° |
| 2026-04-26 08:13 | 48.52592 | 135.17473 | 237 ft | 10 kts | 222° |
| 2026-04-26 08:13 | 48.52549 | 135.17412 | 237 ft | 7 kts | 233° |
| 2026-04-26 08:13 | 48.52548 | 135.17353 | 238 ft | 4 kts | 294° |
| 2026-04-26 08:14 | 48.52565 | 135.17325 | 237 ft | 5 kts | 311° |
| 2026-04-26 08:14 | 48.52574 | 135.17310 | 235 ft | 1 kts | 312° |
| 2026-04-26 08:14 | 48.52583 | 135.17296 | 236 ft | 2 kts | 312° |